createdAt,value
2022-09-22T00:00:19.457Z,98.2
2022-09-22T00:02:19.770Z,98.3
2022-09-22T00:04:19.719Z,98.3
2022-09-22T00:06:22.310Z,98.3
2022-09-22T00:08:20.220Z,98.3
2022-09-22T00:10:20.842Z,98.3
2022-09-22T00:12:20.262Z,98.3
2022-09-22T00:14:23.328Z,98.3
2022-09-22T00:16:23.381Z,98.3
2022-09-22T00:18:20.665Z,98.3
2022-09-22T00:20:20.847Z,98.3
2022-09-22T00:22:20.911Z,98.3
2022-09-22T00:24:22.676Z,98.3
2022-09-22T00:26:23.290Z,98.3
2022-09-22T00:28:21.466Z,98.3
2022-09-22T00:30:21.474Z,98.3
2022-09-22T00:32:21.901Z,98.3
2022-09-22T00:34:24.847Z,98.3
2022-09-22T00:36:23.955Z,98.3
2022-09-22T00:38:22.015Z,98.3
2022-09-22T00:40:22.170Z,98.3
2022-09-22T00:42:22.810Z,98
2022-09-22T00:44:32.529Z,98
2022-09-22T00:46:26.208Z,98
2022-09-22T00:48:25.370Z,98
2022-09-22T00:50:24.350Z,98
2022-09-22T00:52:26.656Z,98.1
2022-09-22T00:54:23.342Z,98.1
2022-09-22T00:56:27.463Z,98.1
2022-09-22T00:58:30.139Z,98.1
2022-09-22T01:00:23.503Z,98.1
2022-09-22T01:02:24.251Z,98.2
2022-09-22T01:04:24.290Z,98.2
2022-09-22T01:06:27.877Z,98.2
2022-09-22T01:08:25.270Z,98.2
2022-09-22T01:10:24.269Z,98.2
2022-09-22T01:12:26.013Z,97.8
2022-09-22T01:14:36.203Z,97.7
2022-09-22T01:16:37.072Z,97.7
2022-09-22T01:18:37.642Z,97.7
2022-09-22T01:21:00.422Z,97.7
2022-09-22T01:22:41.420Z,97.5
2022-09-22T01:24:53.857Z,97.5
2022-09-22T01:26:48.587Z,97.5
2022-09-22T01:28:48.389Z,97.5
2022-09-22T01:30:28.629Z,97.5
2022-09-22T01:32:31.739Z,97.9
2022-09-22T01:34:29.988Z,97.9
2022-09-22T01:36:34.521Z,97.9
2022-09-22T01:38:36.184Z,97.9
2022-09-22T01:40:33.877Z,97.9
2022-09-22T01:42:33.850Z,97.6
2022-09-22T01:44:31.862Z,97.6
2022-09-22T01:46:32.614Z,97.6
2022-09-22T01:48:31.131Z,97.6
2022-09-22T01:50:31.784Z,97.6
2022-09-22T01:52:30.639Z,97.7
2022-09-22T01:54:31.915Z,97.7
2022-09-22T01:56:31.370Z,97.7
2022-09-22T01:58:31.419Z,97.7
2022-09-22T02:00:27.607Z,97.7
2022-09-22T02:02:33.249Z,97.6
2022-09-22T02:04:34.263Z,97.6
2022-09-22T02:06:33.074Z,97.6
2022-09-22T02:08:35.877Z,97.6
2022-09-22T02:10:34.557Z,97.6
2022-09-22T02:12:28.792Z,97.7
2022-09-22T02:14:29.500Z,97.7
2022-09-22T02:16:29.665Z,97.7
2022-09-22T02:18:35.288Z,97.7
2022-09-22T02:20:28.876Z,97.7
2022-09-22T02:22:28.986Z,97.8
2022-09-22T02:24:31.877Z,97.8
2022-09-22T02:26:33.384Z,97.8
2022-09-22T02:28:31.743Z,97.8
2022-09-22T02:30:30.704Z,97.8
2022-09-22T02:32:31.197Z,97.6
2022-09-22T02:34:30.243Z,97.6
2022-09-22T02:36:44.651Z,97.6
2022-09-22T02:38:40.860Z,97.6
2022-09-22T02:40:47.830Z,97.6
2022-09-22T02:42:35.975Z,97.8
2022-09-22T02:44:38.109Z,97.8
2022-09-22T02:46:38.219Z,97.8
2022-09-22T02:48:36.622Z,97.8
2022-09-22T02:50:32.209Z,97.8
2022-09-22T02:52:31.257Z,97.7
2022-09-22T02:54:31.285Z,97.7
2022-09-22T02:56:32.004Z,97.7
2022-09-22T02:58:31.678Z,97.7
2022-09-22T03:00:31.738Z,97.7
2022-09-22T03:02:31.865Z,97.5
2022-09-22T03:04:32.199Z,97.5
2022-09-22T03:06:33.322Z,97.5
2022-09-22T03:08:32.335Z,97.5
2022-09-22T03:10:32.973Z,97.5
2022-09-22T03:12:32.687Z,97.4
2022-09-22T03:14:32.725Z,97.4
2022-09-22T03:16:32.942Z,97.4
2022-09-22T03:18:33.064Z,97.4
2022-09-22T03:20:33.359Z,97.4
2022-09-22T03:22:33.392Z,97.4
2022-09-22T03:24:33.539Z,97.4
2022-09-22T03:26:33.594Z,97.4
2022-09-22T03:28:33.847Z,97.1
2022-09-22T03:30:33.952Z,97.1
2022-09-22T03:32:34.905Z,97.2
2022-09-22T03:34:34.121Z,97.2
2022-09-22T03:36:34.232Z,97.2
2022-09-22T03:38:34.490Z,97.2
2022-09-22T03:40:34.688Z,97.2
2022-09-22T03:42:35.017Z,97.2
2022-09-22T03:44:35.112Z,97.2
2022-09-22T03:46:34.952Z,97.2
2022-09-22T03:48:35.157Z,97.2
2022-09-22T03:50:35.295Z,97.2
2022-09-22T03:52:35.765Z,97.4
2022-09-22T03:54:35.544Z,97.4
2022-09-22T03:56:35.565Z,97.4
2022-09-22T03:58:37.265Z,97.4
2022-09-22T04:00:35.818Z,97.4
2022-09-22T04:02:36.046Z,97.7
2022-09-22T04:04:36.160Z,97.7
2022-09-22T04:06:36.351Z,97.7
2022-09-22T04:08:37.081Z,97.7
2022-09-22T04:10:36.605Z,97.7
2022-09-22T04:12:36.944Z,97.7
2022-09-22T04:14:36.907Z,97.7
2022-09-22T04:16:37.058Z,97.7
2022-09-22T04:18:37.584Z,97.7
2022-09-22T04:20:38.472Z,97.7
2022-09-22T04:22:37.508Z,98
2022-09-22T04:24:37.713Z,98
2022-09-22T04:26:38.031Z,98
2022-09-22T04:28:37.839Z,98
2022-09-22T04:30:38.065Z,98.2
2022-09-22T04:32:38.367Z,98.3
2022-09-22T04:34:38.293Z,98.3
2022-09-22T04:36:38.449Z,98.3
2022-09-22T04:38:38.618Z,98.3
2022-09-22T04:40:38.871Z,98.3
2022-09-22T04:42:39.370Z,98.6
2022-09-22T04:44:39.061Z,98.6
2022-09-22T04:46:39.077Z,98.7
2022-09-22T04:48:39.394Z,98.7
2022-09-22T04:50:41.519Z,98.7
2022-09-22T04:52:39.864Z,98.4
2022-09-22T04:54:39.710Z,98.4
2022-09-22T04:56:40.169Z,98.2
2022-09-22T04:58:40.118Z,97.3
2022-09-22T05:00:40.243Z,97.3
2022-09-22T05:02:40.374Z,97.4
2022-09-22T05:04:40.494Z,97.4
2022-09-22T05:06:40.714Z,96.6
2022-09-22T05:08:40.943Z,96.6
2022-09-22T05:10:41.303Z,96.6
2022-09-22T05:12:41.356Z,96.3
2022-09-22T05:14:41.152Z,96.3
2022-09-22T05:16:41.614Z,96.3
2022-09-22T05:18:41.477Z,97.1
2022-09-22T05:20:42.994Z,97.1
2022-09-22T05:22:42.857Z,96.8
2022-09-22T05:24:41.862Z,96.8
2022-09-22T05:26:42.024Z,96.8
2022-09-22T05:28:42.308Z,96.8
2022-09-22T05:30:42.428Z,96.8
2022-09-22T05:32:43.469Z,97.3
2022-09-22T05:34:42.706Z,97.3
2022-09-22T05:36:42.798Z,97.3
2022-09-22T05:38:42.928Z,97.3
2022-09-22T05:40:45.163Z,97.3
2022-09-22T05:42:45.050Z,97.6
2022-09-22T05:44:43.331Z,97.6
2022-09-22T05:46:43.569Z,97.6
2022-09-22T05:48:43.714Z,97.1
2022-09-22T05:50:44.033Z,96.2
2022-09-22T05:52:44.075Z,95.6
2022-09-22T05:54:44.210Z,95.6
2022-09-22T05:56:44.267Z,95.1
2022-09-22T05:58:46.677Z,95.1
2022-09-22T06:00:44.652Z,95.1
2022-09-22T06:02:44.834Z,95.4
2022-09-22T06:04:47.521Z,95.4
2022-09-22T06:06:45.076Z,95.4
2022-09-22T06:08:48.873Z,95.4
2022-09-22T06:10:45.678Z,95.7
2022-09-22T06:12:45.502Z,95.6
2022-09-22T06:14:45.728Z,95.6
2022-09-22T06:16:45.866Z,95.6
2022-09-22T06:18:46.886Z,95.6
2022-09-22T06:20:46.194Z,95.6
2022-09-22T06:22:46.261Z,95.7
2022-09-22T06:24:46.690Z,95
2022-09-22T06:26:46.566Z,95
2022-09-22T06:28:46.753Z,95
2022-09-22T06:30:46.924Z,95
2022-09-22T06:32:53.329Z,95.8
2022-09-22T06:34:47.185Z,95.8
2022-09-22T06:36:47.326Z,95.8
2022-09-22T06:38:47.440Z,95.8
2022-09-22T06:40:47.662Z,95.8
2022-09-22T06:42:47.791Z,95.8
2022-09-22T06:44:48.019Z,95.8
2022-09-22T06:46:48.072Z,95.8
2022-09-22T06:48:49.705Z,95.8
2022-09-22T06:50:49.682Z,95.1
2022-09-22T06:52:48.503Z,94.6
2022-09-22T06:54:51.766Z,94.6
2022-09-22T06:56:48.779Z,94.6
2022-09-22T06:59:08.751Z,94.6
2022-09-22T07:00:49.233Z,94.6
2022-09-22T07:02:49.230Z,94.4
2022-09-22T07:04:49.439Z,93.9
2022-09-22T07:06:49.568Z,93.9
2022-09-22T07:08:49.749Z,94.7
2022-09-22T07:10:54.680Z,94.7
2022-09-22T07:12:50.058Z,94.4
2022-09-22T07:14:50.809Z,94.4
2022-09-22T07:16:50.505Z,94.2
2022-09-22T07:18:52.391Z,94.2
2022-09-22T07:20:50.699Z,94.2
2022-09-22T07:22:54.537Z,94.2
2022-09-22T07:24:51.161Z,94.2
2022-09-22T07:26:51.132Z,94.2
2022-09-22T07:28:53.187Z,93.5
2022-09-22T07:30:51.472Z,92.9
2022-09-22T07:32:51.841Z,93.5
2022-09-22T07:34:51.741Z,94
2022-09-22T07:36:51.956Z,94
2022-09-22T07:38:54.176Z,93.3
2022-09-22T07:40:52.389Z,92.7
2022-09-22T07:42:52.536Z,92.2
2022-09-22T07:44:52.592Z,91.4
2022-09-22T07:46:52.843Z,91.4
2022-09-22T07:48:53.076Z,91.9
2022-09-22T07:50:53.938Z,91.9
2022-09-22T07:52:53.400Z,92.8
2022-09-22T07:54:53.583Z,92.8
2022-09-22T07:56:54.304Z,92.8
2022-09-22T07:58:54.368Z,93.4
2022-09-22T08:00:54.205Z,93.4
2022-09-22T08:02:55.145Z,93.3
2022-09-22T08:04:54.904Z,93.3
2022-09-22T08:06:54.966Z,93.3
2022-09-22T08:08:56.146Z,92.9
2022-09-22T08:11:02.145Z,92.9
2022-09-22T08:12:55.453Z,92.9
2022-09-22T08:14:55.312Z,92.3
2022-09-22T08:16:55.508Z,92.3
2022-09-22T08:18:57.293Z,92.3
2022-09-22T08:20:56.080Z,92.3
2022-09-22T08:22:56.220Z,92.2
2022-09-22T08:24:56.390Z,92.2
2022-09-22T08:26:56.531Z,92.2
2022-09-22T08:28:57.253Z,92.2
2022-09-22T08:30:57.168Z,92.2
2022-09-22T08:32:58.327Z,92.3
2022-09-22T08:34:57.222Z,92.3
2022-09-22T08:36:57.312Z,92.9
2022-09-22T08:38:58.908Z,92.9
2022-09-22T08:41:11.870Z,92.9
2022-09-22T08:42:59.458Z,92.3
2022-09-22T08:45:04.018Z,92.3
2022-09-22T08:47:00.498Z,92.3
2022-09-22T08:49:03.172Z,92.3
2022-09-22T08:51:04.553Z,91.7
2022-09-22T08:52:59.302Z,91.7
2022-09-22T08:55:00.339Z,92.6
2022-09-22T08:57:14.859Z,92.6
2022-09-22T08:59:06.011Z,92.6
2022-09-22T09:01:13.077Z,92.6
2022-09-22T09:03:15.996Z,93.1
2022-09-22T09:05:22.155Z,93.1
2022-09-22T09:07:10.643Z,93.1
2022-09-22T09:09:17.118Z,92.5
2022-09-22T09:11:11.882Z,91.7
2022-09-22T09:13:17.652Z,92.2
2022-09-22T09:15:18.128Z,92.2
2022-09-22T09:17:05.833Z,92.9
2022-09-22T09:19:14.203Z,92.9
2022-09-22T09:21:05.871Z,92.9
2022-09-22T09:23:08.661Z,92.9
2022-09-22T09:27:10.532Z,92.9
2022-09-22T09:29:05.543Z,92.9
2022-09-22T09:31:08.857Z,92.9
2022-09-22T09:33:11.524Z,92.6
2022-09-22T09:37:10.855Z,91.9
2022-09-22T09:39:12.680Z,90.9
2022-09-22T09:41:12.256Z,90.9
2022-09-22T09:43:05.615Z,91.1
2022-09-22T09:45:04.485Z,91.1
2022-09-22T09:47:11.881Z,91.1
2022-09-22T09:49:07.911Z,91.1
2022-09-22T09:51:04.828Z,91.1
2022-09-22T09:53:07.757Z,90
2022-09-22T09:55:18.164Z,90
2022-09-22T09:57:08.180Z,90
2022-09-22T09:59:11.430Z,90
2022-09-22T10:01:05.544Z,89.5
2022-09-22T10:03:14.178Z,88.5
2022-09-22T10:05:20.802Z,88.5
2022-09-22T10:07:11.235Z,88.5
2022-09-22T10:09:06.578Z,89.1
2022-09-22T10:11:06.573Z,89.1
2022-09-22T10:13:27.787Z,89
2022-09-22T10:15:22.577Z,88.4
2022-09-22T10:17:20.737Z,88.4
2022-09-22T10:19:23.508Z,88.4
2022-09-22T10:21:14.519Z,87.5
2022-09-22T10:23:20.035Z,87.4
2022-09-22T10:25:19.843Z,87.4
2022-09-22T10:27:20.486Z,87.4
2022-09-22T10:29:15.374Z,87.4
2022-09-22T10:31:20.199Z,87.4
2022-09-22T10:33:14.933Z,87.7
2022-09-22T10:35:26.484Z,86.9
2022-09-22T10:37:12.073Z,86.9
2022-09-22T10:39:15.811Z,87.4
2022-09-22T10:41:13.003Z,86.9
2022-09-22T10:43:24.743Z,87
2022-09-22T10:45:13.243Z,87.5
2022-09-22T10:47:27.090Z,87.5
2022-09-22T10:49:15.239Z,87.5
2022-09-22T10:51:15.299Z,88.2
2022-09-22T10:53:31.637Z,87.4
2022-09-22T10:55:24.648Z,87.4
2022-09-22T10:57:21.682Z,88.2
2022-09-22T10:59:31.828Z,88.2
2022-09-22T11:01:31.945Z,86.8
2022-09-22T11:03:38.153Z,86.2
2022-09-22T11:05:36.503Z,85.7
2022-09-22T11:07:26.182Z,85.1
2022-09-22T11:09:22.637Z,85.1
2022-09-22T11:11:21.882Z,85.1
2022-09-22T11:13:26.811Z,84.6
2022-09-22T11:15:24.061Z,84.1
2022-09-22T11:17:29.339Z,83.5
2022-09-22T11:19:27.855Z,82.9
2022-09-22T11:21:25.292Z,81
2022-09-22T11:23:35.353Z,81.5
2022-09-22T11:25:25.024Z,82.7
2022-09-22T11:27:25.278Z,83.3
2022-09-22T11:29:39.750Z,83.9
2022-09-22T11:31:30.985Z,83.3
2022-09-22T11:33:39.788Z,83.4
2022-09-22T11:35:34.614Z,83.4
2022-09-22T11:37:29.041Z,83.9
2022-09-22T11:39:26.271Z,83.9
2022-09-22T11:41:29.086Z,83.9
2022-09-22T11:43:35.811Z,85.7
2022-09-22T11:45:34.209Z,86.7
2022-09-22T11:47:36.577Z,86.2
2022-09-22T11:49:28.075Z,87.3
2022-09-22T11:51:32.653Z,86.2
2022-09-22T11:53:31.848Z,86.6
2022-09-22T11:55:29.830Z,85.6
2022-09-22T11:57:21.534Z,85.6
2022-09-22T11:59:34.884Z,84.5
2022-09-22T12:01:23.368Z,83.7
2022-09-22T12:03:25.958Z,84.2
2022-09-22T12:05:25.448Z,84.2
2022-09-22T12:07:27.170Z,84.2
2022-09-22T12:09:34.193Z,84.2
2022-09-22T12:11:23.538Z,84.2
2022-09-22T12:13:23.182Z,83.1
2022-09-22T12:15:26.575Z,83.1
2022-09-22T12:17:26.708Z,83.1
2022-09-22T12:19:30.894Z,83.7
2022-09-22T12:21:41.652Z,83.2
2022-09-22T12:23:35.537Z,83
2022-09-22T12:25:51.145Z,83
2022-09-22T12:27:23.970Z,83
2022-09-22T12:29:27.222Z,83
2022-09-22T12:31:32.785Z,82.6
2022-09-22T12:33:22.865Z,82.6
2022-09-22T12:35:30.896Z,82.6
2022-09-22T12:37:27.845Z,82.6
2022-09-22T12:39:26.663Z,82.6
2022-09-22T12:41:23.713Z,83.8
2022-09-22T12:43:25.582Z,83.9
2022-09-22T12:45:30.096Z,83.9
2022-09-22T12:47:32.014Z,84.5
2022-09-22T12:49:24.846Z,84.6
2022-09-22T12:51:30.767Z,84.6
2022-09-22T12:53:27.297Z,85
2022-09-22T12:55:30.658Z,85
2022-09-22T12:57:27.957Z,85.2
2022-09-22T12:59:55.367Z,84.6
2022-09-22T13:01:31.263Z,84.6
2022-09-22T13:03:47.725Z,84.7
2022-09-22T13:05:36.861Z,84.7
2022-09-22T13:07:34.495Z,84.7
2022-09-22T13:09:28.801Z,84
2022-09-22T13:11:56.913Z,83.9
2022-09-22T13:13:38.425Z,83.9
2022-09-22T13:15:28.701Z,83
2022-09-22T13:17:43.360Z,83
2022-09-22T13:19:28.660Z,83
2022-09-22T13:21:30.478Z,83
2022-09-22T13:23:29.494Z,83.1
2022-09-22T13:25:29.368Z,83.1
2022-09-22T13:27:29.230Z,83.1
2022-09-22T13:29:29.595Z,82.9
2022-09-22T13:31:36.468Z,82.9
2022-09-22T13:33:33.635Z,82.6
2022-09-22T13:35:33.875Z,82.6
2022-09-22T13:37:30.846Z,82.6
2022-09-22T13:39:34.360Z,82.6
2022-09-22T13:41:40.076Z,83.4
2022-09-22T13:43:35.066Z,83.4
2022-09-22T13:45:31.586Z,84.2
2022-09-22T13:47:32.079Z,84.2
2022-09-22T13:49:37.456Z,85.1
2022-09-22T13:51:32.187Z,85.1
2022-09-22T13:53:32.371Z,84.9
2022-09-22T13:55:35.140Z,84.9
2022-09-22T13:57:36.329Z,84.9
2022-09-22T13:59:39.010Z,85.6
2022-09-22T14:01:33.460Z,85.6
2022-09-22T14:03:36.095Z,85.3
2022-09-22T14:05:34.989Z,85.3
2022-09-22T14:07:49.544Z,85.3
2022-09-22T14:09:37.247Z,85.3
2022-09-22T14:11:36.251Z,86.1
2022-09-22T14:13:38.471Z,85.8
2022-09-22T14:15:40.157Z,85.4
2022-09-22T14:17:35.335Z,85.4
2022-09-22T14:19:39.467Z,85.4
2022-09-22T14:21:43.127Z,85.4
2022-09-22T14:23:37.097Z,85.3
2022-09-22T14:25:36.292Z,85.3
2022-09-22T14:27:46.274Z,85.3
2022-09-22T14:29:38.308Z,86.4
2022-09-22T14:31:39.162Z,86.4
2022-09-22T14:33:41.638Z,86.5
2022-09-22T14:35:37.496Z,86.5
2022-09-22T14:37:41.044Z,86.5
2022-09-22T14:39:40.414Z,87
2022-09-22T14:41:38.062Z,87
2022-09-22T14:43:38.301Z,86.8
2022-09-22T14:45:55.468Z,86.8
2022-09-22T14:47:39.331Z,87.6
2022-09-22T14:49:40.893Z,87.6
2022-09-22T14:51:44.270Z,87.6
2022-09-22T14:53:43.572Z,87.5
2022-09-22T14:55:43.996Z,87.5
2022-09-22T14:57:44.214Z,87.5
2022-09-22T14:59:47.257Z,87.5
2022-09-22T15:01:49.928Z,87.5
2022-09-22T15:03:43.130Z,87.4
2022-09-22T15:05:41.280Z,87.4
2022-09-22T15:07:47.174Z,87.4
2022-09-22T15:09:42.163Z,87.4
2022-09-22T15:11:51.105Z,88.3
2022-09-22T15:13:43.601Z,88.1
2022-09-22T15:15:45.854Z,88.1
2022-09-22T15:17:43.691Z,88.9
2022-09-22T15:19:42.248Z,88.9
2022-09-22T15:21:42.613Z,88.9
2022-09-22T15:23:46.293Z,89
2022-09-22T15:25:44.438Z,89
2022-09-22T15:27:43.805Z,89
2022-09-22T15:29:44.120Z,89
2022-09-22T15:31:43.652Z,89
2022-09-22T15:33:43.728Z,89.5
2022-09-22T15:35:46.020Z,89.5
2022-09-22T15:37:46.428Z,89.5
2022-09-22T15:39:44.876Z,90.2
2022-09-22T15:41:44.893Z,90.2
2022-09-22T15:43:45.092Z,90
2022-09-22T15:45:46.911Z,90
2022-09-22T15:47:45.665Z,90
2022-09-22T15:49:45.781Z,90
2022-09-22T15:51:46.331Z,90
2022-09-22T15:53:46.207Z,90.4
2022-09-22T15:55:46.456Z,90.4
2022-09-22T15:57:48.486Z,90.4
2022-09-22T15:59:47.004Z,90.4
2022-09-22T16:01:47.483Z,90.4
2022-09-22T16:03:47.321Z,90.4
2022-09-22T16:05:49.853Z,90.4
2022-09-22T16:07:50.808Z,90.4
2022-09-22T16:09:48.123Z,90.4
2022-09-22T16:11:48.304Z,90.4
2022-09-22T16:13:48.485Z,90.1
2022-09-22T16:15:48.719Z,90.1
2022-09-22T16:17:48.908Z,90.1
2022-09-22T16:19:49.546Z,90.1
2022-09-22T16:21:51.177Z,90.1
2022-09-22T16:23:49.798Z,90.4
2022-09-22T16:25:52.491Z,90.4
2022-09-22T16:27:49.994Z,90.7
2022-09-22T16:29:50.287Z,90.7
2022-09-22T16:31:50.422Z,91.5
2022-09-22T16:33:50.983Z,91.4
2022-09-22T16:35:50.883Z,91.4
2022-09-22T16:37:52.214Z,91.4
2022-09-22T16:39:51.294Z,91.4
2022-09-22T16:41:51.518Z,91.4
2022-09-22T16:43:52.750Z,91.7
2022-09-22T16:45:51.878Z,92.1
2022-09-22T16:47:52.059Z,92.1
2022-09-22T16:49:52.476Z,92.1
2022-09-22T16:51:52.654Z,92.1
2022-09-22T16:53:53.762Z,92.1
2022-09-22T16:55:53.010Z,92.1
2022-09-22T16:57:53.145Z,92.1
2022-09-22T16:59:53.433Z,92.1
2022-09-22T17:01:53.726Z,92.1
2022-09-22T17:03:53.718Z,92.1
2022-09-22T17:06:01.018Z,92.1
2022-09-22T17:07:54.049Z,92.1
2022-09-22T17:09:54.337Z,92.1
2022-09-22T17:11:54.460Z,92.1
2022-09-22T17:13:54.870Z,92.6
2022-09-22T17:16:02.681Z,92.6
2022-09-22T17:17:55.046Z,92.6
2022-09-22T17:19:55.474Z,92.6
2022-09-22T17:21:56.549Z,92.1
2022-09-22T17:23:55.954Z,92.1
2022-09-22T17:25:55.806Z,92.1
2022-09-22T17:27:56.083Z,92.1
2022-09-22T17:29:56.433Z,92.1
2022-09-22T17:31:58.630Z,92.7
2022-09-22T17:33:57.521Z,92.7
2022-09-22T17:35:57.312Z,92.7
2022-09-22T17:37:57.008Z,92.7
2022-09-22T17:39:57.418Z,93.1
2022-09-22T17:41:57.868Z,92.8
2022-09-22T17:43:58.891Z,92.8
2022-09-22T17:45:57.895Z,92.8
2022-09-22T17:47:58.025Z,92.8
2022-09-22T17:49:58.452Z,92.8
2022-09-22T17:51:58.451Z,92.8
2022-09-22T17:53:58.584Z,92.8
2022-09-22T17:55:58.827Z,92.8
2022-09-22T17:57:59.076Z,92.8
2022-09-22T17:59:59.459Z,92.8
2022-09-22T18:01:59.780Z,93
2022-09-22T18:03:59.614Z,93
2022-09-22T18:05:59.731Z,93
2022-09-22T18:08:00.269Z,93
2022-09-22T18:10:00.351Z,93
2022-09-22T18:12:01.137Z,93.4
2022-09-22T18:14:00.510Z,93.4
2022-09-22T18:16:16.813Z,93.4
2022-09-22T18:18:00.923Z,93.4
2022-09-22T18:20:01.429Z,93.4
2022-09-22T18:22:01.572Z,93.7
2022-09-22T18:24:02.052Z,93.2
2022-09-22T18:26:01.532Z,93.2
2022-09-22T18:28:01.860Z,93.2
2022-09-22T18:30:02.554Z,93.2
2022-09-22T18:32:02.413Z,93.3
2022-09-22T18:34:02.339Z,93.3
2022-09-22T18:36:02.621Z,93.3
2022-09-22T18:38:02.732Z,93.3
2022-09-22T18:40:03.447Z,93.3
2022-09-22T18:42:03.262Z,93.3
2022-09-22T18:44:03.725Z,93.3
2022-09-22T18:46:03.586Z,93.3
2022-09-22T18:48:03.867Z,93.3
2022-09-22T18:50:04.429Z,93.3
2022-09-22T18:52:04.129Z,93.6
2022-09-22T18:54:05.321Z,93.7
2022-09-22T18:56:08.694Z,93.7
2022-09-22T18:58:04.565Z,93.7
2022-09-22T19:00:06.076Z,93.7
2022-09-22T19:02:07.559Z,93.8
2022-09-22T19:04:07.510Z,93.8
2022-09-22T19:06:05.772Z,93.8
2022-09-22T19:08:05.601Z,93.8
2022-09-22T19:10:06.887Z,93.8
2022-09-22T19:12:08.104Z,94
2022-09-22T19:14:06.143Z,94
2022-09-22T19:16:06.315Z,94
2022-09-22T19:18:06.525Z,94
2022-09-22T19:20:07.506Z,94
2022-09-22T19:22:08.784Z,94
2022-09-22T19:24:07.505Z,94
2022-09-22T19:26:07.246Z,94
2022-09-22T19:28:08.017Z,94
2022-09-22T19:30:09.236Z,94
2022-09-22T19:32:08.002Z,94.1
2022-09-22T19:34:09.638Z,94.6
2022-09-22T19:36:08.145Z,93.8
2022-09-22T19:38:08.294Z,93.8
2022-09-22T19:40:10.840Z,93.8
2022-09-22T19:42:08.771Z,94.4
2022-09-22T19:44:08.775Z,94.4
2022-09-22T19:46:10.138Z,94.4
2022-09-22T19:48:09.223Z,94.4
2022-09-22T19:50:09.495Z,94.4
2022-09-22T19:52:10.278Z,94.4
2022-09-22T19:54:10.623Z,94.4
2022-09-22T19:56:09.909Z,94.9
2022-09-22T19:58:10.106Z,94.9
2022-09-22T20:00:13.598Z,94.9
2022-09-22T20:02:12.323Z,95.5
2022-09-22T20:04:14.590Z,95.5
2022-09-22T20:06:10.765Z,95.5
2022-09-22T20:08:11.547Z,95.5
2022-09-22T20:10:11.165Z,95.5
2022-09-22T20:12:11.303Z,95.6
2022-09-22T20:14:12.865Z,95.6
2022-09-22T20:16:11.763Z,95.3
2022-09-22T20:18:11.846Z,95.3
2022-09-22T20:20:12.868Z,95.3
2022-09-22T20:22:21.873Z,95.5
2022-09-22T20:24:15.618Z,95.5
2022-09-22T20:26:12.710Z,95.8
2022-09-22T20:28:13.134Z,95.8
2022-09-22T20:30:13.355Z,95.8
2022-09-22T20:32:13.196Z,96.3
2022-09-22T20:34:14.663Z,96.3
2022-09-22T20:36:13.902Z,96.3
2022-09-22T20:38:13.752Z,96.8
2022-09-22T20:40:17.282Z,96.8
2022-09-22T20:42:14.174Z,96.9
2022-09-22T20:44:14.319Z,96.9
2022-09-22T20:46:14.628Z,96.9
2022-09-22T20:48:15.190Z,96.9
2022-09-22T20:50:14.856Z,96.9
2022-09-22T20:52:16.378Z,97.1
2022-09-22T20:54:15.170Z,97.3
2022-09-22T20:56:15.375Z,97.3
2022-09-22T20:58:15.382Z,97.3
2022-09-22T21:00:16.007Z,97.3
2022-09-22T21:02:15.811Z,97.3
2022-09-22T21:04:16.384Z,97.3
2022-09-22T21:06:16.274Z,97.3
2022-09-22T21:08:16.357Z,97.3
2022-09-22T21:10:16.574Z,96.8
2022-09-22T21:12:16.534Z,96.7
2022-09-22T21:14:16.679Z,96.7
2022-09-22T21:16:16.965Z,96.7
2022-09-22T21:18:17.029Z,96.7
2022-09-22T21:20:17.195Z,96.7
2022-09-22T21:22:17.361Z,97.1
2022-09-22T21:24:17.527Z,97.3
2022-09-22T21:26:18.245Z,97.3
2022-09-22T21:28:17.877Z,97.3
2022-09-22T21:30:18.074Z,97.3
2022-09-22T21:32:18.252Z,97
2022-09-22T21:34:18.411Z,96.8
2022-09-22T21:36:20.440Z,96.8
2022-09-22T21:38:18.822Z,96.8
2022-09-22T21:40:19.138Z,96.8
2022-09-22T21:42:19.142Z,96.9
2022-09-22T21:44:19.353Z,96.9
2022-09-22T21:46:21.300Z,96.9
2022-09-22T21:48:19.692Z,96.9
2022-09-22T21:50:19.745Z,96.9
2022-09-22T21:52:19.906Z,96.6
2022-09-22T21:54:20.190Z,96.6
2022-09-22T21:56:21.972Z,96.6
2022-09-22T21:58:20.398Z,96.6
2022-09-22T22:00:36.866Z,96.6
2022-09-22T22:02:20.823Z,96.7
2022-09-22T22:04:20.999Z,96.7
2022-09-22T22:06:23.193Z,96.7
2022-09-22T22:08:21.243Z,96.7
2022-09-22T22:10:21.562Z,96.7
2022-09-22T22:12:21.659Z,96.7
2022-09-22T22:14:23.853Z,96.7
2022-09-22T22:16:24.536Z,96.7
2022-09-22T22:18:22.203Z,96.2
2022-09-22T22:20:22.391Z,96.2
2022-09-22T22:22:22.535Z,96.1
2022-09-22T22:24:24.222Z,96.1
2022-09-22T22:26:25.016Z,96.1
2022-09-22T22:28:23.049Z,96.1
2022-09-22T22:30:23.511Z,96.1
2022-09-22T22:32:23.421Z,96
2022-09-22T22:34:24.488Z,96
2022-09-22T22:36:23.727Z,96
2022-09-22T22:38:24.264Z,96
2022-09-22T22:40:24.290Z,96
2022-09-22T22:42:24.211Z,96
2022-09-22T22:44:24.495Z,96
2022-09-22T22:46:24.671Z,96
2022-09-22T22:48:25.899Z,96
2022-09-22T22:50:24.914Z,96
2022-09-22T22:52:25.071Z,96.2
2022-09-22T22:54:25.267Z,96.2
2022-09-22T22:56:26.885Z,96.2
2022-09-22T22:58:28.064Z,96.2
2022-09-22T23:00:26.200Z,96.2
2022-09-22T23:02:28.995Z,96.5
2022-09-22T23:04:26.148Z,96.5
2022-09-22T23:06:29.119Z,96.5
2022-09-22T23:08:27.985Z,96.5
2022-09-22T23:10:26.971Z,96.5
2022-09-22T23:12:26.908Z,96.2
2022-09-22T23:14:27.072Z,96.2
2022-09-22T23:16:28.974Z,96.8
2022-09-22T23:18:27.485Z,96.8
2022-09-22T23:20:27.628Z,96.8
2022-09-22T23:22:28.025Z,96.5
2022-09-22T23:24:28.042Z,96.5
2022-09-22T23:26:28.285Z,96.5
2022-09-22T23:28:30.720Z,96.5
2022-09-22T23:30:28.665Z,96.5
2022-09-22T23:32:28.710Z,96.7
2022-09-22T23:34:28.992Z,96.7
2022-09-22T23:36:29.452Z,96.7
2022-09-22T23:38:31.133Z,96.7
2022-09-22T23:40:30.001Z,96.7
2022-09-22T23:42:29.633Z,96.6
2022-09-22T23:44:29.875Z,96.6
2022-09-22T23:46:30.383Z,96.6
2022-09-22T23:48:31.287Z,96.6
2022-09-22T23:50:30.364Z,96.6
2022-09-22T23:52:30.587Z,96.5
2022-09-22T23:54:30.715Z,96.5
2022-09-22T23:56:30.983Z,96.5
2022-09-22T23:58:31.472Z,96.5
